sensor_id;sensor_type;location;lat;lon;timestamp;temperature;humidity
52889;DHT22;41413;52.770;6.892;2022-09-17T00:01:24;11.70;99.90
52889;DHT22;41413;52.770;6.892;2022-09-17T00:03:55;11.60;99.90
52889;DHT22;41413;52.770;6.892;2022-09-17T00:06:23;11.60;99.90
52889;DHT22;41413;52.770;6.892;2022-09-17T00:08:51;11.50;99.90
52889;DHT22;41413;52.770;6.892;2022-09-17T00:11:22;11.50;99.90
52889;DHT22;41413;52.770;6.892;2022-09-17T00:13:50;11.50;99.90
52889;DHT22;41413;52.770;6.892;2022-09-17T00:16:27;11.50;99.90
52889;DHT22;41413;52.770;6.892;2022-09-17T00:18:54;11.50;99.90
52889;DHT22;41413;52.770;6.892;2022-09-17T00:21:21;11.40;99.90
52889;DHT22;41413;52.770;6.892;2022-09-17T00:23:52;11.30;99.90
52889;DHT22;41413;52.770;6.892;2022-09-17T00:26:20;11.30;99.90
52889;DHT22;41413;52.770;6.892;2022-09-17T00:28:51;11.30;99.90
52889;DHT22;41413;52.770;6.892;2022-09-17T00:31:19;11.20;99.90
52889;DHT22;41413;52.770;6.892;2022-09-17T00:33:46;11.10;99.90
52889;DHT22;41413;52.770;6.892;2022-09-17T00:36:13;11.00;99.90
52889;DHT22;41413;52.770;6.892;2022-09-17T00:38:40;11.00;99.90
52889;DHT22;41413;52.770;6.892;2022-09-17T00:41:07;11.00;99.90
52889;DHT22;41413;52.770;6.892;2022-09-17T00:43:38;11.00;99.90
52889;DHT22;41413;52.770;6.892;2022-09-17T00:49:02;11.00;99.90
52889;DHT22;41413;52.770;6.892;2022-09-17T00:51:35;10.90;99.90
52889;DHT22;41413;52.770;6.892;2022-09-17T00:54:05;10.90;99.90
52889;DHT22;41413;52.770;6.892;2022-09-17T00:56:35;10.80;99.90
52889;DHT22;41413;52.770;6.892;2022-09-17T00:59:02;10.80;99.90
52889;DHT22;41413;52.770;6.892;2022-09-17T01:01:30;10.80;99.90
52889;DHT22;41413;52.770;6.892;2022-09-17T01:03:57;10.80;99.90
52889;DHT22;41413;52.770;6.892;2022-09-17T01:06:34;10.80;99.90
52889;DHT22;41413;52.770;6.892;2022-09-17T01:09:24;10.80;99.90
52889;DHT22;41413;52.770;6.892;2022-09-17T01:12:27;10.80;99.90
52889;DHT22;41413;52.770;6.892;2022-09-17T01:23:31;10.60;99.90
52889;DHT22;41413;52.770;6.892;2022-09-17T01:26:34;10.60;99.90
52889;DHT22;41413;52.770;6.892;2022-09-17T01:29:29;10.60;99.90
52889;DHT22;41413;52.770;6.892;2022-09-17T01:32:11;10.60;99.90
52889;DHT22;41413;52.770;6.892;2022-09-17T01:40:41;10.60;99.90
52889;DHT22;41413;52.770;6.892;2022-09-17T01:45:51;10.50;99.90
52889;DHT22;41413;52.770;6.892;2022-09-17T01:48:25;10.50;99.90
52889;DHT22;41413;52.770;6.892;2022-09-17T01:51:16;10.50;99.90
52889;DHT22;41413;52.770;6.892;2022-09-17T01:56:36;10.60;99.90
52889;DHT22;41413;52.770;6.892;2022-09-17T01:59:38;10.40;99.90
52889;DHT22;41413;52.770;6.892;2022-09-17T02:02:12;10.50;99.90
52889;DHT22;41413;52.770;6.892;2022-09-17T02:04:51;10.50;99.90
52889;DHT22;41413;52.770;6.892;2022-09-17T02:07:22;10.40;99.90
52889;DHT22;41413;52.770;6.892;2022-09-17T02:10:19;10.50;99.90
52889;DHT22;41413;52.770;6.892;2022-09-17T02:13:00;10.40;99.90
52889;DHT22;41413;52.770;6.892;2022-09-17T02:15:33;10.40;99.90
52889;DHT22;41413;52.770;6.892;2022-09-17T02:20:53;10.30;99.90
52889;DHT22;41413;52.770;6.892;2022-09-17T02:23:30;10.40;99.90
52889;DHT22;41413;52.770;6.892;2022-09-17T02:26:08;10.40;99.90
52889;DHT22;41413;52.770;6.892;2022-09-17T02:28:41;10.40;99.90
52889;DHT22;41413;52.770;6.892;2022-09-17T02:31:09;10.40;99.90
52889;DHT22;41413;52.770;6.892;2022-09-17T02:33:37;10.40;99.90
52889;DHT22;41413;52.770;6.892;2022-09-17T02:36:05;10.40;99.90
52889;DHT22;41413;52.770;6.892;2022-09-17T02:38:31;10.40;99.90
52889;DHT22;41413;52.770;6.892;2022-09-17T02:41:22;10.40;99.90
52889;DHT22;41413;52.770;6.892;2022-09-17T02:46:49;10.30;99.90
52889;DHT22;41413;52.770;6.892;2022-09-17T02:51:59;10.30;99.90
52889;DHT22;41413;52.770;6.892;2022-09-17T02:54:41;10.30;99.90
52889;DHT22;41413;52.770;6.892;2022-09-17T02:57:20;10.30;99.90
52889;DHT22;41413;52.770;6.892;2022-09-17T02:59:57;10.30;99.90
52889;DHT22;41413;52.770;6.892;2022-09-17T03:02:42;10.40;99.90
52889;DHT22;41413;52.770;6.892;2022-09-17T03:05:09;10.30;99.90
52889;DHT22;41413;52.770;6.892;2022-09-17T03:07:37;10.30;99.90
52889;DHT22;41413;52.770;6.892;2022-09-17T03:10:05;10.30;99.90
52889;DHT22;41413;52.770;6.892;2022-09-17T03:12:31;10.30;99.90
52889;DHT22;41413;52.770;6.892;2022-09-17T03:14:58;10.30;99.90
52889;DHT22;41413;52.770;6.892;2022-09-17T03:17:25;10.40;99.90
52889;DHT22;41413;52.770;6.892;2022-09-17T03:19:51;10.40;99.90
52889;DHT22;41413;52.770;6.892;2022-09-17T03:22:18;10.40;99.90
52889;DHT22;41413;52.770;6.892;2022-09-17T03:24:45;10.50;99.90
52889;DHT22;41413;52.770;6.892;2022-09-17T03:27:11;10.50;99.90
52889;DHT22;41413;52.770;6.892;2022-09-17T03:29:38;10.50;99.90
52889;DHT22;41413;52.770;6.892;2022-09-17T03:32:05;10.40;99.90
52889;DHT22;41413;52.770;6.892;2022-09-17T03:34:32;10.50;99.90
52889;DHT22;41413;52.770;6.892;2022-09-17T03:36:59;10.50;99.90
52889;DHT22;41413;52.770;6.892;2022-09-17T03:39:25;10.50;99.90
52889;DHT22;41413;52.770;6.892;2022-09-17T03:41:52;10.50;99.90
52889;DHT22;41413;52.770;6.892;2022-09-17T03:44:18;10.50;99.90
52889;DHT22;41413;52.770;6.892;2022-09-17T03:46:46;10.50;99.90
52889;DHT22;41413;52.770;6.892;2022-09-17T03:49:13;10.50;99.90
52889;DHT22;41413;52.770;6.892;2022-09-17T03:51:40;10.50;99.90
52889;DHT22;41413;52.770;6.892;2022-09-17T03:54:06;10.50;99.90
52889;DHT22;41413;52.770;6.892;2022-09-17T03:56:33;10.40;99.90
52889;DHT22;41413;52.770;6.892;2022-09-17T03:59:00;10.40;99.90
52889;DHT22;41413;52.770;6.892;2022-09-17T04:01:28;10.40;99.90
52889;DHT22;41413;52.770;6.892;2022-09-17T04:03:55;10.40;99.90
52889;DHT22;41413;52.770;6.892;2022-09-17T04:06:21;10.40;99.90
52889;DHT22;41413;52.770;6.892;2022-09-17T04:08:48;10.40;99.90
52889;DHT22;41413;52.770;6.892;2022-09-17T04:11:15;10.40;99.90
52889;DHT22;41413;52.770;6.892;2022-09-17T04:13:42;10.40;99.90
52889;DHT22;41413;52.770;6.892;2022-09-17T04:16:09;10.40;99.90
52889;DHT22;41413;52.770;6.892;2022-09-17T04:18:37;10.40;99.90
52889;DHT22;41413;52.770;6.892;2022-09-17T04:21:04;10.40;99.90
52889;DHT22;41413;52.770;6.892;2022-09-17T04:23:30;10.50;99.90
52889;DHT22;41413;52.770;6.892;2022-09-17T04:25:57;10.50;99.90
52889;DHT22;41413;52.770;6.892;2022-09-17T04:28:23;10.50;99.90
52889;DHT22;41413;52.770;6.892;2022-09-17T04:30:50;10.50;99.90
52889;DHT22;41413;52.770;6.892;2022-09-17T04:33:17;10.60;99.90
52889;DHT22;41413;52.770;6.892;2022-09-17T04:35:44;10.50;99.90
52889;DHT22;41413;52.770;6.892;2022-09-17T04:38:10;10.50;99.90
52889;DHT22;41413;52.770;6.892;2022-09-17T04:40:39;10.50;99.90
52889;DHT22;41413;52.770;6.892;2022-09-17T04:43:07;10.40;99.90
52889;DHT22;41413;52.770;6.892;2022-09-17T04:45:35;10.40;99.90
52889;DHT22;41413;52.770;6.892;2022-09-17T04:48:02;10.40;99.90
52889;DHT22;41413;52.770;6.892;2022-09-17T04:50:29;10.40;99.90
52889;DHT22;41413;52.770;6.892;2022-09-17T04:52:56;10.30;99.90
52889;DHT22;41413;52.770;6.892;2022-09-17T04:55:23;10.20;99.90
52889;DHT22;41413;52.770;6.892;2022-09-17T04:57:51;10.20;99.90
52889;DHT22;41413;52.770;6.892;2022-09-17T05:00:20;10.20;99.90
52889;DHT22;41413;52.770;6.892;2022-09-17T05:02:48;10.20;99.90
52889;DHT22;41413;52.770;6.892;2022-09-17T05:05:16;10.20;99.90
52889;DHT22;41413;52.770;6.892;2022-09-17T05:07:44;10.10;99.90
52889;DHT22;41413;52.770;6.892;2022-09-17T05:10:13;10.10;99.90
52889;DHT22;41413;52.770;6.892;2022-09-17T05:12:39;10.10;99.90
52889;DHT22;41413;52.770;6.892;2022-09-17T05:15:06;10.10;99.90
52889;DHT22;41413;52.770;6.892;2022-09-17T05:17:33;10.10;99.90
52889;DHT22;41413;52.770;6.892;2022-09-17T05:20:00;10.10;99.90
52889;DHT22;41413;52.770;6.892;2022-09-17T05:22:27;10.20;99.90
52889;DHT22;41413;52.770;6.892;2022-09-17T05:24:53;10.20;99.90
52889;DHT22;41413;52.770;6.892;2022-09-17T05:27:20;10.10;99.90
52889;DHT22;41413;52.770;6.892;2022-09-17T05:29:47;10.20;99.90
52889;DHT22;41413;52.770;6.892;2022-09-17T05:32:13;10.20;99.90
52889;DHT22;41413;52.770;6.892;2022-09-17T05:34:40;10.20;99.90
52889;DHT22;41413;52.770;6.892;2022-09-17T05:37:10;10.20;99.90
52889;DHT22;41413;52.770;6.892;2022-09-17T05:39:37;10.20;99.90
52889;DHT22;41413;52.770;6.892;2022-09-17T05:42:04;10.20;99.90
52889;DHT22;41413;52.770;6.892;2022-09-17T05:44:31;10.20;99.90
52889;DHT22;41413;52.770;6.892;2022-09-17T05:46:57;10.20;99.90
52889;DHT22;41413;52.770;6.892;2022-09-17T05:49:24;10.20;99.90
52889;DHT22;41413;52.770;6.892;2022-09-17T05:51:51;10.20;99.90
52889;DHT22;41413;52.770;6.892;2022-09-17T05:54:17;10.20;99.90
52889;DHT22;41413;52.770;6.892;2022-09-17T05:56:44;10.20;99.90
52889;DHT22;41413;52.770;6.892;2022-09-17T05:59:11;10.20;99.90
52889;DHT22;41413;52.770;6.892;2022-09-17T06:01:38;10.20;99.90
52889;DHT22;41413;52.770;6.892;2022-09-17T06:04:04;10.20;99.90
52889;DHT22;41413;52.770;6.892;2022-09-17T06:06:31;10.30;99.90
52889;DHT22;41413;52.770;6.892;2022-09-17T06:08:58;10.30;99.90
52889;DHT22;41413;52.770;6.892;2022-09-17T06:11:25;10.40;99.90
52889;DHT22;41413;52.770;6.892;2022-09-17T06:13:53;10.50;99.90
52889;DHT22;41413;52.770;6.892;2022-09-17T06:16:21;10.60;99.90
52889;DHT22;41413;52.770;6.892;2022-09-17T06:18:48;10.60;99.90
52889;DHT22;41413;52.770;6.892;2022-09-17T06:21:19;10.60;99.90
52889;DHT22;41413;52.770;6.892;2022-09-17T06:23:47;10.70;99.90
52889;DHT22;41413;52.770;6.892;2022-09-17T06:26:14;10.70;99.90
52889;DHT22;41413;52.770;6.892;2022-09-17T06:28:41;10.80;99.90
52889;DHT22;41413;52.770;6.892;2022-09-17T06:31:09;10.90;99.90
52889;DHT22;41413;52.770;6.892;2022-09-17T06:33:36;11.00;99.90
52889;DHT22;41413;52.770;6.892;2022-09-17T06:36:05;10.90;99.90
52889;DHT22;41413;52.770;6.892;2022-09-17T06:38:39;11.00;99.90
52889;DHT22;41413;52.770;6.892;2022-09-17T06:41:05;10.90;99.90
52889;DHT22;41413;52.770;6.892;2022-09-17T06:43:32;10.90;99.90
52889;DHT22;41413;52.770;6.892;2022-09-17T06:46:01;10.80;99.90
52889;DHT22;41413;52.770;6.892;2022-09-17T06:48:29;10.80;99.90
52889;DHT22;41413;52.770;6.892;2022-09-17T06:51:00;10.80;99.90
52889;DHT22;41413;52.770;6.892;2022-09-17T06:53:29;10.80;99.90
52889;DHT22;41413;52.770;6.892;2022-09-17T06:55:57;10.80;99.90
52889;DHT22;41413;52.770;6.892;2022-09-17T06:58:31;10.80;99.90
52889;DHT22;41413;52.770;6.892;2022-09-17T07:01:02;10.80;99.90
52889;DHT22;41413;52.770;6.892;2022-09-17T07:03:29;10.90;99.90
52889;DHT22;41413;52.770;6.892;2022-09-17T07:05:57;10.90;99.90
52889;DHT22;41413;52.770;6.892;2022-09-17T07:08:24;10.90;99.90
52889;DHT22;41413;52.770;6.892;2022-09-17T07:10:57;10.90;99.90
52889;DHT22;41413;52.770;6.892;2022-09-17T07:13:25;10.90;99.90
52889;DHT22;41413;52.770;6.892;2022-09-17T07:15:56;10.90;99.90
52889;DHT22;41413;52.770;6.892;2022-09-17T07:18:23;10.90;99.90
52889;DHT22;41413;52.770;6.892;2022-09-17T07:20:55;10.80;99.90
52889;DHT22;41413;52.770;6.892;2022-09-17T07:23:24;10.80;99.90
52889;DHT22;41413;52.770;6.892;2022-09-17T07:25:52;10.90;99.90
52889;DHT22;41413;52.770;6.892;2022-09-17T07:28:19;11.00;99.90
52889;DHT22;41413;52.770;6.892;2022-09-17T07:30:46;11.00;99.90
52889;DHT22;41413;52.770;6.892;2022-09-17T07:33:13;11.20;99.90
52889;DHT22;41413;52.770;6.892;2022-09-17T07:35:40;11.40;99.90
52889;DHT22;41413;52.770;6.892;2022-09-17T07:38:06;11.40;99.90
52889;DHT22;41413;52.770;6.892;2022-09-17T07:40:33;11.40;99.90
52889;DHT22;41413;52.770;6.892;2022-09-17T07:43:00;11.40;99.90
52889;DHT22;41413;52.770;6.892;2022-09-17T07:45:26;11.40;99.90
52889;DHT22;41413;52.770;6.892;2022-09-17T07:47:53;11.40;99.90
52889;DHT22;41413;52.770;6.892;2022-09-17T07:50:19;11.50;99.90
52889;DHT22;41413;52.770;6.892;2022-09-17T07:52:46;11.80;99.90
52889;DHT22;41413;52.770;6.892;2022-09-17T07:55:14;12.60;99.90
52889;DHT22;41413;52.770;6.892;2022-09-17T07:57:41;13.20;99.90
52889;DHT22;41413;52.770;6.892;2022-09-17T08:00:08;13.80;99.90
52889;DHT22;41413;52.770;6.892;2022-09-17T08:02:34;13.80;99.90
52889;DHT22;41413;52.770;6.892;2022-09-17T08:05:01;13.50;99.90
52889;DHT22;41413;52.770;6.892;2022-09-17T08:07:28;13.60;99.90
52889;DHT22;41413;52.770;6.892;2022-09-17T08:09:55;14.80;99.90
52889;DHT22;41413;52.770;6.892;2022-09-17T08:12:21;16.10;99.90
52889;DHT22;41413;52.770;6.892;2022-09-17T08:14:48;16.70;99.90
52889;DHT22;41413;52.770;6.892;2022-09-17T08:17:14;17.60;99.90
52889;DHT22;41413;52.770;6.892;2022-09-17T08:19:41;18.50;99.90
52889;DHT22;41413;52.770;6.892;2022-09-17T08:22:08;19.20;99.90
52889;DHT22;41413;52.770;6.892;2022-09-17T08:24:34;20.10;99.90
52889;DHT22;41413;52.770;6.892;2022-09-17T08:27:01;20.60;99.90
52889;DHT22;41413;52.770;6.892;2022-09-17T08:29:28;21.20;99.90
52889;DHT22;41413;52.770;6.892;2022-09-17T08:32:00;21.00;99.90
52889;DHT22;41413;52.770;6.892;2022-09-17T08:34:27;20.20;99.90
52889;DHT22;41413;52.770;6.892;2022-09-17T08:36:53;20.20;99.90
52889;DHT22;41413;52.770;6.892;2022-09-17T08:39:20;20.20;99.90
52889;DHT22;41413;52.770;6.892;2022-09-17T08:41:57;21.00;99.90
52889;DHT22;41413;52.770;6.892;2022-09-17T08:44:37;21.80;99.90
52889;DHT22;41413;52.770;6.892;2022-09-17T08:47:22;22.00;98.90
52889;DHT22;41413;52.770;6.892;2022-09-17T08:55:29;21.20;97.30
52889;DHT22;41413;52.770;6.892;2022-09-17T09:00:49;18.50;99.90
52889;DHT22;41413;52.770;6.892;2022-09-17T09:06:26;16.40;99.90
52889;DHT22;41413;52.770;6.892;2022-09-17T09:08:59;15.70;99.90
52889;DHT22;41413;52.770;6.892;2022-09-17T09:11:30;15.40;99.90
52889;DHT22;41413;52.770;6.892;2022-09-17T09:16:25;16.10;99.90
52889;DHT22;41413;52.770;6.892;2022-09-17T09:18:55;17.10;99.90
52889;DHT22;41413;52.770;6.892;2022-09-17T09:21:27;17.50;99.90
52889;DHT22;41413;52.770;6.892;2022-09-17T09:24:24;17.90;99.90
52889;DHT22;41413;52.770;6.892;2022-09-17T09:32:54;18.70;99.90
52889;DHT22;41413;52.770;6.892;2022-09-17T09:35:31;18.80;99.90
52889;DHT22;41413;52.770;6.892;2022-09-17T09:40:57;18.80;99.90
52889;DHT22;41413;52.770;6.892;2022-09-17T09:54:56;17.00;99.90
52889;DHT22;41413;52.770;6.892;2022-09-17T09:57:52;17.20;99.90
52889;DHT22;41413;52.770;6.892;2022-09-17T10:00:28;17.30;99.90
52889;DHT22;41413;52.770;6.892;2022-09-17T10:03:00;17.10;99.90
52889;DHT22;41413;52.770;6.892;2022-09-17T10:05:28;16.70;99.90
52889;DHT22;41413;52.770;6.892;2022-09-17T10:07:56;16.40;99.90
52889;DHT22;41413;52.770;6.892;2022-09-17T10:10:22;16.10;99.90
52889;DHT22;41413;52.770;6.892;2022-09-17T10:13:04;15.80;99.90
52889;DHT22;41413;52.770;6.892;2022-09-17T10:15:31;15.90;99.90
52889;DHT22;41413;52.770;6.892;2022-09-17T10:21:02;16.70;99.90
52889;DHT22;41413;52.770;6.892;2022-09-17T10:23:32;16.50;99.90
52889;DHT22;41413;52.770;6.892;2022-09-17T10:26:02;16.20;99.90
52889;DHT22;41413;52.770;6.892;2022-09-17T10:28:32;15.70;99.90
52889;DHT22;41413;52.770;6.892;2022-09-17T10:31:05;15.50;99.90
52889;DHT22;41413;52.770;6.892;2022-09-17T10:33:56;15.10;99.90
52889;DHT22;41413;52.770;6.892;2022-09-17T10:36:40;14.80;99.90
52889;DHT22;41413;52.770;6.892;2022-09-17T10:39:26;14.50;99.90
52889;DHT22;41413;52.770;6.892;2022-09-17T10:42:22;14.20;99.90
52889;DHT22;41413;52.770;6.892;2022-09-17T10:47:25;15.10;99.90
52889;DHT22;41413;52.770;6.892;2022-09-17T10:50:04;15.50;99.90
52889;DHT22;41413;52.770;6.892;2022-09-17T10:52:35;16.10;99.90
52889;DHT22;41413;52.770;6.892;2022-09-17T10:55:24;16.40;99.90
52889;DHT22;41413;52.770;6.892;2022-09-17T10:58:16;16.50;99.90
52889;DHT22;41413;52.770;6.892;2022-09-17T11:01:08;16.80;99.90
52889;DHT22;41413;52.770;6.892;2022-09-17T11:04:01;16.90;99.90
52889;DHT22;41413;52.770;6.892;2022-09-17T11:11:57;17.70;99.90
52889;DHT22;41413;52.770;6.892;2022-09-17T11:22:54;17.70;99.90
52889;DHT22;41413;52.770;6.892;2022-09-17T11:31:33;16.30;99.90
52889;DHT22;41413;52.770;6.892;2022-09-17T11:34:34;15.90;99.90
52889;DHT22;41413;52.770;6.892;2022-09-17T11:37:13;15.50;99.90
52889;DHT22;41413;52.770;6.892;2022-09-17T11:40:02;15.30;99.90
52889;DHT22;41413;52.770;6.892;2022-09-17T11:45:36;14.50;99.90
52889;DHT22;41413;52.770;6.892;2022-09-17T11:48:14;14.20;99.90
52889;DHT22;41413;52.770;6.892;2022-09-17T11:50:54;13.90;99.90
52889;DHT22;41413;52.770;6.892;2022-09-17T11:58:43;14.40;99.90
52889;DHT22;41413;52.770;6.892;2022-09-17T12:01:30;14.60;99.90
52889;DHT22;41413;52.770;6.892;2022-09-17T12:04:34;15.00;99.90
52889;DHT22;41413;52.770;6.892;2022-09-17T12:12:54;15.30;99.90
52889;DHT22;41413;52.770;6.892;2022-09-17T12:15:27;15.40;99.90
52889;DHT22;41413;52.770;6.892;2022-09-17T12:18:23;15.60;99.90
52889;DHT22;41413;52.770;6.892;2022-09-17T12:21:00;15.60;99.90
52889;DHT22;41413;52.770;6.892;2022-09-17T12:23:48;15.90;99.90
52889;DHT22;41413;52.770;6.892;2022-09-17T12:26:56;16.00;99.90
52889;DHT22;41413;52.770;6.892;2022-09-17T12:38:25;16.50;99.90
52889;DHT22;41413;52.770;6.892;2022-09-17T12:41:02;16.50;99.90
52889;DHT22;41413;52.770;6.892;2022-09-17T12:52:40;16.60;99.90
52889;DHT22;41413;52.770;6.892;2022-09-17T12:55:21;16.70;99.90
52889;DHT22;41413;52.770;6.892;2022-09-17T12:58:10;16.80;99.90
52889;DHT22;41413;52.770;6.892;2022-09-17T13:01:06;16.90;99.90
52889;DHT22;41413;52.770;6.892;2022-09-17T13:03:40;17.00;99.90
52889;DHT22;41413;52.770;6.892;2022-09-17T13:09:18;17.10;99.90
52889;DHT22;41413;52.770;6.892;2022-09-17T13:17:17;17.20;99.90
52889;DHT22;41413;52.770;6.892;2022-09-17T13:20:33;16.80;99.90
52889;DHT22;41413;52.770;6.892;2022-09-17T13:22:45;16.70;99.90
52889;DHT22;41413;52.770;6.892;2022-09-17T13:25:15;16.60;99.90
52889;DHT22;41413;52.770;6.892;2022-09-17T13:27:43;16.60;99.90
52889;DHT22;41413;52.770;6.892;2022-09-17T13:30:12;16.60;99.90
52889;DHT22;41413;52.770;6.892;2022-09-17T13:32:41;16.80;99.90
52889;DHT22;41413;52.770;6.892;2022-09-17T13:37:37;17.10;99.90
52889;DHT22;41413;52.770;6.892;2022-09-17T13:40:19;17.20;99.90
52889;DHT22;41413;52.770;6.892;2022-09-17T13:42:50;17.40;99.90
52889;DHT22;41413;52.770;6.892;2022-09-17T13:45:22;17.60;99.90
52889;DHT22;41413;52.770;6.892;2022-09-17T13:48:08;17.50;99.90
52889;DHT22;41413;52.770;6.892;2022-09-17T13:50:37;17.40;99.90
52889;DHT22;41413;52.770;6.892;2022-09-17T13:53:05;17.30;99.90
52889;DHT22;41413;52.770;6.892;2022-09-17T13:55:37;17.10;99.90
52889;DHT22;41413;52.770;6.892;2022-09-17T13:58:07;17.10;99.90
52889;DHT22;41413;52.770;6.892;2022-09-17T14:01:06;17.00;99.90
52889;DHT22;41413;52.770;6.892;2022-09-17T14:21:56;16.70;99.00
52889;DHT22;41413;52.770;6.892;2022-09-17T14:24:28;16.60;96.60
52889;DHT22;41413;52.770;6.892;2022-09-17T14:27:12;16.70;98.50
52889;DHT22;41413;52.770;6.892;2022-09-17T14:35:42;16.50;96.20
52889;DHT22;41413;52.770;6.892;2022-09-17T14:41:35;16.50;96.70
52889;DHT22;41413;52.770;6.892;2022-09-17T14:46:21;16.60;96.70
52889;DHT22;41413;52.770;6.892;2022-09-17T14:48:48;16.50;97.40
52889;DHT22;41413;52.770;6.892;2022-09-17T14:54:05;16.60;97.80
52889;DHT22;41413;52.770;6.892;2022-09-17T14:56:35;16.60;98.10
52889;DHT22;41413;52.770;6.892;2022-09-17T14:59:13;16.50;98.50
52889;DHT22;41413;52.770;6.892;2022-09-17T15:01:45;16.40;99.20
52889;DHT22;41413;52.770;6.892;2022-09-17T15:06:40;16.20;99.90
52889;DHT22;41413;52.770;6.892;2022-09-17T15:09:24;16.20;99.90
52889;DHT22;41413;52.770;6.892;2022-09-17T15:11:57;16.00;99.90
52889;DHT22;41413;52.770;6.892;2022-09-17T15:14:29;15.80;99.90
52889;DHT22;41413;52.770;6.892;2022-09-17T15:16:58;15.50;99.90
52889;DHT22;41413;52.770;6.892;2022-09-17T15:19:30;15.40;99.90
52889;DHT22;41413;52.770;6.892;2022-09-17T15:22:08;15.20;99.90
52889;DHT22;41413;52.770;6.892;2022-09-17T15:25:07;15.00;99.90
52889;DHT22;41413;52.770;6.892;2022-09-17T15:27:43;14.90;99.90
52889;DHT22;41413;52.770;6.892;2022-09-17T15:30:14;14.90;99.90
52889;DHT22;41413;52.770;6.892;2022-09-17T15:32:50;14.80;99.90
52889;DHT22;41413;52.770;6.892;2022-09-17T15:35:29;14.80;99.90
52889;DHT22;41413;52.770;6.892;2022-09-17T15:37:58;14.90;99.90
52889;DHT22;41413;52.770;6.892;2022-09-17T15:40:47;14.80;99.90
52889;DHT22;41413;52.770;6.892;2022-09-17T15:43:31;14.90;99.90
52889;DHT22;41413;52.770;6.892;2022-09-17T15:46:28;14.90;99.90
52889;DHT22;41413;52.770;6.892;2022-09-17T15:48:57;14.90;99.90
52889;DHT22;41413;52.770;6.892;2022-09-17T15:51:26;14.80;99.90
52889;DHT22;41413;52.770;6.892;2022-09-17T15:53:58;14.70;99.90
52889;DHT22;41413;52.770;6.892;2022-09-17T15:56:34;14.70;99.90
52889;DHT22;41413;52.770;6.892;2022-09-17T15:59:24;14.50;99.90
52889;DHT22;41413;52.770;6.892;2022-09-17T16:01:56;14.50;99.90
52889;DHT22;41413;52.770;6.892;2022-09-17T16:04:25;14.50;99.90
52889;DHT22;41413;52.770;6.892;2022-09-17T16:07:00;14.30;99.90
52889;DHT22;41413;52.770;6.892;2022-09-17T16:09:37;14.40;99.90
52889;DHT22;41413;52.770;6.892;2022-09-17T16:12:04;14.40;99.90
52889;DHT22;41413;52.770;6.892;2022-09-17T16:14:31;14.50;99.90
52889;DHT22;41413;52.770;6.892;2022-09-17T16:16:58;14.50;99.90
52889;DHT22;41413;52.770;6.892;2022-09-17T16:19:25;14.40;99.90
52889;DHT22;41413;52.770;6.892;2022-09-17T16:21:52;14.60;99.90
52889;DHT22;41413;52.770;6.892;2022-09-17T16:24:18;14.70;99.90
52889;DHT22;41413;52.770;6.892;2022-09-17T16:26:45;14.60;99.90
52889;DHT22;41413;52.770;6.892;2022-09-17T16:29:14;14.50;99.90
52889;DHT22;41413;52.770;6.892;2022-09-17T16:31:42;14.50;99.90
52889;DHT22;41413;52.770;6.892;2022-09-17T16:34:10;14.50;99.90
52889;DHT22;41413;52.770;6.892;2022-09-17T16:36:36;14.40;99.90
52889;DHT22;41413;52.770;6.892;2022-09-17T16:39:03;14.40;99.90
52889;DHT22;41413;52.770;6.892;2022-09-17T16:41:30;14.30;99.90
52889;DHT22;41413;52.770;6.892;2022-09-17T16:43:57;14.20;99.90
52889;DHT22;41413;52.770;6.892;2022-09-17T16:46:24;14.30;99.90
52889;DHT22;41413;52.770;6.892;2022-09-17T16:48:51;14.30;99.90
52889;DHT22;41413;52.770;6.892;2022-09-17T16:51:17;14.10;99.90
52889;DHT22;41413;52.770;6.892;2022-09-17T16:53:44;14.00;99.90
52889;DHT22;41413;52.770;6.892;2022-09-17T16:56:13;14.00;99.90
52889;DHT22;41413;52.770;6.892;2022-09-17T16:58:39;14.00;99.90
52889;DHT22;41413;52.770;6.892;2022-09-17T17:01:08;14.00;99.90
52889;DHT22;41413;52.770;6.892;2022-09-17T17:03:35;13.90;99.90
52889;DHT22;41413;52.770;6.892;2022-09-17T17:06:02;13.90;99.90
52889;DHT22;41413;52.770;6.892;2022-09-17T17:08:32;13.80;99.90
52889;DHT22;41413;52.770;6.892;2022-09-17T17:10:59;13.70;99.90
52889;DHT22;41413;52.770;6.892;2022-09-17T17:13:26;13.60;99.90
52889;DHT22;41413;52.770;6.892;2022-09-17T17:15:55;13.60;99.90
52889;DHT22;41413;52.770;6.892;2022-09-17T17:18:22;13.60;99.90
52889;DHT22;41413;52.770;6.892;2022-09-17T17:20:50;13.50;99.90
52889;DHT22;41413;52.770;6.892;2022-09-17T17:23:16;13.60;99.90
52889;DHT22;41413;52.770;6.892;2022-09-17T17:25:43;13.50;99.90
52889;DHT22;41413;52.770;6.892;2022-09-17T17:28:09;13.50;99.90
52889;DHT22;41413;52.770;6.892;2022-09-17T17:30:36;13.50;99.90
52889;DHT22;41413;52.770;6.892;2022-09-17T17:33:03;13.50;99.90
52889;DHT22;41413;52.770;6.892;2022-09-17T17:35:30;13.40;99.90
52889;DHT22;41413;52.770;6.892;2022-09-17T17:37:57;13.40;99.90
52889;DHT22;41413;52.770;6.892;2022-09-17T17:40:24;13.40;99.90
52889;DHT22;41413;52.770;6.892;2022-09-17T17:42:52;13.40;99.90
52889;DHT22;41413;52.770;6.892;2022-09-17T17:45:19;13.30;99.90
52889;DHT22;41413;52.770;6.892;2022-09-17T17:47:46;13.30;99.90
52889;DHT22;41413;52.770;6.892;2022-09-17T17:50:13;13.30;99.90
52889;DHT22;41413;52.770;6.892;2022-09-17T17:52:41;13.20;99.90
52889;DHT22;41413;52.770;6.892;2022-09-17T17:55:13;13.20;99.90
52889;DHT22;41413;52.770;6.892;2022-09-17T17:57:40;13.20;99.90
52889;DHT22;41413;52.770;6.892;2022-09-17T18:00:07;13.20;99.90
52889;DHT22;41413;52.770;6.892;2022-09-17T18:02:37;13.20;99.90
52889;DHT22;41413;52.770;6.892;2022-09-17T18:05:04;13.20;99.90
52889;DHT22;41413;52.770;6.892;2022-09-17T18:07:30;13.20;99.90
52889;DHT22;41413;52.770;6.892;2022-09-17T18:09:57;13.20;99.90
52889;DHT22;41413;52.770;6.892;2022-09-17T18:12:24;13.20;99.90
52889;DHT22;41413;52.770;6.892;2022-09-17T18:14:52;13.20;99.90
52889;DHT22;41413;52.770;6.892;2022-09-17T18:17:19;13.30;99.90
52889;DHT22;41413;52.770;6.892;2022-09-17T18:19:45;13.20;99.90
52889;DHT22;41413;52.770;6.892;2022-09-17T18:22:12;13.20;99.90
52889;DHT22;41413;52.770;6.892;2022-09-17T18:24:39;13.10;99.90
52889;DHT22;41413;52.770;6.892;2022-09-17T18:27:06;13.10;99.90
52889;DHT22;41413;52.770;6.892;2022-09-17T18:29:32;13.10;99.90
52889;DHT22;41413;52.770;6.892;2022-09-17T18:31:59;13.00;99.90
52889;DHT22;41413;52.770;6.892;2022-09-17T18:34:26;13.00;99.90
52889;DHT22;41413;52.770;6.892;2022-09-17T18:36:52;12.90;99.90
52889;DHT22;41413;52.770;6.892;2022-09-17T18:39:19;13.00;99.90
52889;DHT22;41413;52.770;6.892;2022-09-17T18:42:07;13.00;99.90
52889;DHT22;41413;52.770;6.892;2022-09-17T18:44:33;12.90;99.90
52889;DHT22;41413;52.770;6.892;2022-09-17T18:47:00;12.90;99.90